sensor_id;sensor_type;location;lat;lon;timestamp;pressure;altitude;pressure_sealevel;temperature;humidity
46846;BME280;33947;46.804;134.252;2023-04-25T00:02:18;100656.38;;;13.17;25.60
46846;BME280;33947;46.804;134.252;2023-04-25T00:05:23;100652.19;;;13.59;25.37
46846;BME280;33947;46.804;134.252;2023-04-25T00:08:29;100647.03;;;13.54;25.07
46846;BME280;33947;46.804;134.252;2023-04-25T00:11:34;100640.94;;;13.25;25.51
46846;BME280;33947;46.804;134.252;2023-04-25T00:14:39;100636.91;;;13.64;24.55
46846;BME280;33947;46.804;134.252;2023-04-25T00:17:44;100636.22;;;13.81;24.73
46846;BME280;33947;46.804;134.252;2023-04-25T00:20:49;100626.03;;;13.91;25.08
46846;BME280;33947;46.804;134.252;2023-04-25T00:23:52;100632.97;;;14.19;24.45
46846;BME280;33947;46.804;134.252;2023-04-25T00:26:57;100613.59;;;13.92;24.53
46846;BME280;33947;46.804;134.252;2023-04-25T00:30:01;100601.53;;;14.03;24.58
46846;BME280;33947;46.804;134.252;2023-04-25T00:33:08;100581.50;;;14.36;24.27
46846;BME280;33947;46.804;134.252;2023-04-25T00:36:13;100586.75;;;14.60;24.41
46846;BME280;33947;46.804;134.252;2023-04-25T00:39:18;100584.06;;;15.01;24.01
46846;BME280;33947;46.804;134.252;2023-04-25T00:42:24;100587.59;;;15.42;23.61
46846;BME280;33947;46.804;134.252;2023-04-25T00:45:29;100582.09;;;15.83;23.16
46846;BME280;33947;46.804;134.252;2023-04-25T00:48:34;100575.28;;;15.76;22.29
46846;BME280;33947;46.804;134.252;2023-04-25T00:51:38;100569.00;;;15.58;21.45
46846;BME280;33947;46.804;134.252;2023-04-25T00:54:42;100554.72;;;15.76;21.18
46846;BME280;33947;46.804;134.252;2023-04-25T00:57:47;100575.09;;;16.17;21.79
46846;BME280;33947;46.804;134.252;2023-04-25T01:00:52;100586.03;;;16.13;22.15
46846;BME280;33947;46.804;134.252;2023-04-25T01:03:58;100572.91;;;16.61;21.35
46846;BME280;33947;46.804;134.252;2023-04-25T01:07:03;100571.84;;;16.99;20.86
46846;BME280;33947;46.804;134.252;2023-04-25T01:10:08;100573.53;;;17.01;20.69
46846;BME280;33947;46.804;134.252;2023-04-25T01:13:13;100569.56;;;16.91;20.89
46846;BME280;33947;46.804;134.252;2023-04-25T01:16:18;100561.22;;;17.47;20.77
46846;BME280;33947;46.804;134.252;2023-04-25T01:19:24;100531.94;;;17.26;20.61
46846;BME280;33947;46.804;134.252;2023-04-25T01:22:29;100551.19;;;17.67;19.99
46846;BME280;33947;46.804;134.252;2023-04-25T01:25:34;100537.38;;;17.89;19.66
46846;BME280;33947;46.804;134.252;2023-04-25T01:28:40;100547.25;;;17.56;20.36
46846;BME280;33947;46.804;134.252;2023-04-25T01:31:46;100539.75;;;17.63;20.22
46846;BME280;33947;46.804;134.252;2023-04-25T01:34:51;100528.09;;;17.94;20.18
46846;BME280;33947;46.804;134.252;2023-04-25T01:37:56;100506.69;;;17.93;20.07
46846;BME280;33947;46.804;134.252;2023-04-25T01:40:59;100517.28;;;17.64;20.22
46846;BME280;33947;46.804;134.252;2023-04-25T01:44:04;100498.66;;;17.77;19.46
46846;BME280;33947;46.804;134.252;2023-04-25T01:47:09;100484.34;;;17.60;19.99
46846;BME280;33947;46.804;134.252;2023-04-25T01:50:14;100493.72;;;17.53;20.08
46846;BME280;33947;46.804;134.252;2023-04-25T01:53:18;100474.50;;;16.28;21.05
46846;BME280;33947;46.804;134.252;2023-04-25T01:56:23;100478.66;;;17.18;20.70
46846;BME280;33947;46.804;134.252;2023-04-25T01:59:29;100475.69;;;16.73;21.28
46846;BME280;33947;46.804;134.252;2023-04-25T02:03:07;100476.47;;;16.42;21.25
46846;BME280;33947;46.804;134.252;2023-04-25T02:06:11;100466.78;;;16.04;19.48
46846;BME280;33947;46.804;134.252;2023-04-25T02:09:19;100443.72;;;15.65;20.10
46846;BME280;33947;46.804;134.252;2023-04-25T02:12:28;100440.72;;;15.71;20.02
46846;BME280;33947;46.804;134.252;2023-04-25T02:15:38;100427.50;;;16.38;19.48
46846;BME280;33947;46.804;134.252;2023-04-25T02:18:53;100417.88;;;16.52;19.28
46846;BME280;33947;46.804;134.252;2023-04-25T02:21:58;100406.44;;;16.48;19.05
46846;BME280;33947;46.804;134.252;2023-04-25T02:25:02;100392.91;;;16.67;18.70
46846;BME280;33947;46.804;134.252;2023-04-25T02:28:08;100391.16;;;16.66;18.49
46846;BME280;33947;46.804;134.252;2023-04-25T02:31:14;100383.13;;;16.82;18.45
46846;BME280;33947;46.804;134.252;2023-04-25T02:34:18;100383.03;;;16.84;18.29
46846;BME280;33947;46.804;134.252;2023-04-25T02:37:22;100357.28;;;17.13;17.01
46846;BME280;33947;46.804;134.252;2023-04-25T02:40:27;100364.72;;;16.92;17.23
46846;BME280;33947;46.804;134.252;2023-04-25T02:43:32;100384.03;;;16.99;16.99
46846;BME280;33947;46.804;134.252;2023-04-25T02:46:36;100338.06;;;16.73;16.51
46846;BME280;33947;46.804;134.252;2023-04-25T02:49:41;100331.72;;;16.58;16.12
46846;BME280;33947;46.804;134.252;2023-04-25T02:52:45;100317.25;;;16.44;16.00
46846;BME280;33947;46.804;134.252;2023-04-25T02:55:59;100350.00;;;16.17;16.05
46846;BME280;33947;46.804;134.252;2023-04-25T02:59:03;100312.03;;;15.91;16.04
46846;BME280;33947;46.804;134.252;2023-04-25T03:02:08;100315.66;;;15.90;16.20
46846;BME280;33947;46.804;134.252;2023-04-25T03:05:12;100301.91;;;15.63;16.03
46846;BME280;33947;46.804;134.252;2023-04-25T03:08:17;100301.97;;;15.61;16.41
46846;BME280;33947;46.804;134.252;2023-04-25T03:11:22;100307.06;;;15.48;16.89
46846;BME280;33947;46.804;134.252;2023-04-25T03:14:26;100302.81;;;15.80;16.68
46846;BME280;33947;46.804;134.252;2023-04-25T03:17:30;100297.53;;;15.96;16.17
46846;BME280;33947;46.804;134.252;2023-04-25T03:20:35;100285.72;;;15.65;16.32
46846;BME280;33947;46.804;134.252;2023-04-25T03:23:39;100272.84;;;15.73;16.75
46846;BME280;33947;46.804;134.252;2023-04-25T03:26:43;100240.22;;;15.65;16.51
46846;BME280;33947;46.804;134.252;2023-04-25T03:29:48;100266.44;;;15.93;16.10
46846;BME280;33947;46.804;134.252;2023-04-25T03:32:53;100270.34;;;16.03;15.79
46846;BME280;33947;46.804;134.252;2023-04-25T03:35:57;100260.69;;;16.33;15.92
46846;BME280;33947;46.804;134.252;2023-04-25T03:39:03;100259.41;;;16.40;16.11
46846;BME280;33947;46.804;134.252;2023-04-25T03:42:09;100250.50;;;16.40;16.07
46846;BME280;33947;46.804;134.252;2023-04-25T03:45:13;100255.25;;;16.18;16.30
46846;BME280;33947;46.804;134.252;2023-04-25T03:48:17;100247.09;;;16.04;15.60
46846;BME280;33947;46.804;134.252;2023-04-25T03:51:22;100220.66;;;16.30;16.12
46846;BME280;33947;46.804;134.252;2023-04-25T03:54:26;100228.94;;;16.73;16.08
46846;BME280;33947;46.804;134.252;2023-04-25T03:57:38;100224.81;;;16.52;16.18
46846;BME280;33947;46.804;134.252;2023-04-25T04:00:42;100202.41;;;16.53;15.97
46846;BME280;33947;46.804;134.252;2023-04-25T04:03:46;100200.38;;;16.72;16.13
46846;BME280;33947;46.804;134.252;2023-04-25T04:06:51;100191.94;;;16.64;16.06
46846;BME280;33947;46.804;134.252;2023-04-25T04:10:01;100186.50;;;16.49;15.70
46846;BME280;33947;46.804;134.252;2023-04-25T04:13:11;100166.34;;;16.42;16.09
46846;BME280;33947;46.804;134.252;2023-04-25T04:16:14;100156.81;;;16.69;16.26
46846;BME280;33947;46.804;134.252;2023-04-25T04:19:19;100159.75;;;16.64;16.01
46846;BME280;33947;46.804;134.252;2023-04-25T04:22:34;100118.28;;;16.23;16.51
46846;BME280;33947;46.804;134.252;2023-04-25T04:25:43;100156.56;;;16.41;16.29
46846;BME280;33947;46.804;134.252;2023-04-25T04:29:12;100131.88;;;16.67;16.31
46846;BME280;33947;46.804;134.252;2023-04-25T04:32:37;100143.75;;;16.93;16.54
46846;BME280;33947;46.804;134.252;2023-04-25T04:35:42;100151.78;;;17.09;16.32
46846;BME280;33947;46.804;134.252;2023-04-25T04:38:47;100134.03;;;16.76;16.40
46846;BME280;33947;46.804;134.252;2023-04-25T04:42:01;100141.91;;;16.93;16.57
46846;BME280;33947;46.804;134.252;2023-04-25T04:45:16;100124.81;;;17.11;16.71
46846;BME280;33947;46.804;134.252;2023-04-25T04:48:54;100125.41;;;16.85;16.41
46846;BME280;33947;46.804;134.252;2023-04-25T04:52:17;100098.47;;;16.72;16.52
46846;BME280;33947;46.804;134.252;2023-04-25T04:55:57;100103.63;;;16.61;16.45
46846;BME280;33947;46.804;134.252;2023-04-25T04:59:10;100062.19;;;16.20;16.85
46846;BME280;33947;46.804;134.252;2023-04-25T05:02:22;100078.75;;;16.12;16.98
46846;BME280;33947;46.804;134.252;2023-04-25T05:05:46;100070.13;;;16.38;17.42
46846;BME280;33947;46.804;134.252;2023-04-25T05:09:06;100071.69;;;16.56;17.66
46846;BME280;33947;46.804;134.252;2023-04-25T05:12:21;100047.25;;;16.46;17.86
46846;BME280;33947;46.804;134.252;2023-04-25T05:15:47;100064.25;;;16.31;18.14
46846;BME280;33947;46.804;134.252;2023-04-25T05:19:12;100067.25;;;16.41;18.16
46846;BME280;33947;46.804;134.252;2023-04-25T05:22:27;100050.09;;;16.29;18.35
46846;BME280;33947;46.804;134.252;2023-04-25T05:25:43;100056.03;;;16.34;18.09
46846;BME280;33947;46.804;134.252;2023-04-25T05:29:07;100062.00;;;16.23;18.13
46846;BME280;33947;46.804;134.252;2023-04-25T05:32:34;100051.66;;;16.17;18.49
46846;BME280;33947;46.804;134.252;2023-04-25T05:35:39;100033.53;;;16.06;18.82
46846;BME280;33947;46.804;134.252;2023-04-25T05:38:46;100036.69;;;16.29;18.60
46846;BME280;33947;46.804;134.252;2023-04-25T05:41:49;100019.94;;;16.09;18.35
46846;BME280;33947;46.804;134.252;2023-04-25T05:45:14;100015.22;;;16.14;18.77
46846;BME280;33947;46.804;134.252;2023-04-25T05:48:47;100001.25;;;15.93;18.86
46846;BME280;33947;46.804;134.252;2023-04-25T05:52:15;99988.53;;;15.97;18.64
46846;BME280;33947;46.804;134.252;2023-04-25T05:55:27;100018.91;;;16.42;18.07
46846;BME280;33947;46.804;134.252;2023-04-25T05:58:33;99963.81;;;15.91;17.63
46846;BME280;33947;46.804;134.252;2023-04-25T06:01:38;99960.41;;;16.04;16.99
46846;BME280;33947;46.804;134.252;2023-04-25T06:04:44;99989.00;;;16.19;16.61
46846;BME280;33947;46.804;134.252;2023-04-25T06:07:48;99979.16;;;16.04;17.05
46846;BME280;33947;46.804;134.252;2023-04-25T06:10:52;99972.56;;;15.95;17.31
46846;BME280;33947;46.804;134.252;2023-04-25T06:13:58;99978.13;;;16.06;17.45
46846;BME280;33947;46.804;134.252;2023-04-25T06:17:03;99967.38;;;15.92;17.95
46846;BME280;33947;46.804;134.252;2023-04-25T06:20:12;99957.06;;;16.00;18.14
46846;BME280;33947;46.804;134.252;2023-04-25T06:23:16;99950.91;;;16.14;18.29
46846;BME280;33947;46.804;134.252;2023-04-25T06:26:27;99961.56;;;16.30;18.35
46846;BME280;33947;46.804;134.252;2023-04-25T06:29:32;99968.00;;;16.12;18.87
46846;BME280;33947;46.804;134.252;2023-04-25T06:32:36;99957.22;;;16.13;19.37
46846;BME280;33947;46.804;134.252;2023-04-25T06:35:41;99946.75;;;16.09;19.63
46846;BME280;33947;46.804;134.252;2023-04-25T06:38:48;99959.56;;;16.03;19.86
46846;BME280;33947;46.804;134.252;2023-04-25T06:41:53;99953.91;;;16.08;20.36
46846;BME280;33947;46.804;134.252;2023-04-25T06:45:15;99964.88;;;16.19;20.64
46846;BME280;33947;46.804;134.252;2023-04-25T06:48:19;99946.44;;;15.99;20.92
46846;BME280;33947;46.804;134.252;2023-04-25T06:51:27;99954.78;;;16.09;21.06
46846;BME280;33947;46.804;134.252;2023-04-25T06:54:33;99947.38;;;15.82;21.66
46846;BME280;33947;46.804;134.252;2023-04-25T06:57:48;99944.63;;;15.83;22.27
46846;BME280;33947;46.804;134.252;2023-04-25T07:01:21;99927.72;;;15.67;23.09
46846;BME280;33947;46.804;134.252;2023-04-25T07:04:26;99938.13;;;15.57;23.59
46846;BME280;33947;46.804;134.252;2023-04-25T07:07:32;99962.19;;;15.73;23.89
46846;BME280;33947;46.804;134.252;2023-04-25T07:10:37;99956.66;;;15.76;23.83
46846;BME280;33947;46.804;134.252;2023-04-25T07:13:41;99946.38;;;15.68;24.54
46846;BME280;33947;46.804;134.252;2023-04-25T07:16:45;99913.88;;;15.12;24.27
46846;BME280;33947;46.804;134.252;2023-04-25T07:19:50;99961.16;;;15.43;24.38
46846;BME280;33947;46.804;134.252;2023-04-25T07:22:55;99911.44;;;15.39;24.64
46846;BME280;33947;46.804;134.252;2023-04-25T07:26:00;99960.03;;;15.47;24.78
46846;BME280;33947;46.804;134.252;2023-04-25T07:29:05;99963.50;;;15.49;25.28
46846;BME280;33947;46.804;134.252;2023-04-25T07:32:10;99961.94;;;15.29;25.88
46846;BME280;33947;46.804;134.252;2023-04-25T07:35:17;99966.16;;;15.49;26.36
46846;BME280;33947;46.804;134.252;2023-04-25T07:38:23;99956.41;;;15.48;26.83
46846;BME280;33947;46.804;134.252;2023-04-25T07:41:27;99956.59;;;15.29;27.25
46846;BME280;33947;46.804;134.252;2023-04-25T07:44:31;99937.63;;;15.18;27.52
46846;BME280;33947;46.804;134.252;2023-04-25T07:47:38;99973.44;;;15.47;27.70
46846;BME280;33947;46.804;134.252;2023-04-25T07:50:44;99973.59;;;15.12;29.56
46846;BME280;33947;46.804;134.252;2023-04-25T07:53:50;99983.94;;;15.02;31.49
46846;BME280;33947;46.804;134.252;2023-04-25T07:56:56;99982.66;;;15.10;31.73
46846;BME280;33947;46.804;134.252;2023-04-25T08:00:05;99988.72;;;14.80;32.61
46846;BME280;33947;46.804;134.252;2023-04-25T08:03:18;99965.47;;;14.64;33.32
46846;BME280;33947;46.804;134.252;2023-04-25T08:06:23;100000.59;;;14.56;34.94
46846;BME280;33947;46.804;134.252;2023-04-25T08:09:42;99960.53;;;14.39;33.89
46846;BME280;33947;46.804;134.252;2023-04-25T08:12:55;99955.00;;;14.59;33.69
46846;BME280;33947;46.804;134.252;2023-04-25T08:15:59;100005.16;;;14.54;33.93
46846;BME280;33947;46.804;134.252;2023-04-25T08:19:05;100003.44;;;14.53;34.27
46846;BME280;33947;46.804;134.252;2023-04-25T08:22:10;99987.00;;;14.43;34.59
46846;BME280;33947;46.804;134.252;2023-04-25T08:25:25;100010.75;;;14.50;35.24
46846;BME280;33947;46.804;134.252;2023-04-25T08:28:30;99976.78;;;14.16;35.33
46846;BME280;33947;46.804;134.252;2023-04-25T08:31:37;100011.06;;;14.43;35.90
46846;BME280;33947;46.804;134.252;2023-04-25T08:34:43;100014.75;;;14.23;36.43
46846;BME280;33947;46.804;134.252;2023-04-25T08:37:48;100024.78;;;14.00;37.77
46846;BME280;33947;46.804;134.252;2023-04-25T08:40:54;100028.78;;;13.92;38.54
46846;BME280;33947;46.804;134.252;2023-04-25T08:43:59;100013.66;;;14.10;38.71
46846;BME280;33947;46.804;134.252;2023-04-25T08:47:05;100022.72;;;13.88;39.61
46846;BME280;33947;46.804;134.252;2023-04-25T08:50:17;100027.91;;;13.91;39.80
46846;BME280;33947;46.804;134.252;2023-04-25T08:53:27;100011.63;;;13.78;39.94
46846;BME280;33947;46.804;134.252;2023-04-25T08:56:35;100039.28;;;13.58;41.72
46846;BME280;33947;46.804;134.252;2023-04-25T08:59:40;100022.66;;;13.13;42.71
46846;BME280;33947;46.804;134.252;2023-04-25T09:02:49;100021.16;;;13.26;42.34
46846;BME280;33947;46.804;134.252;2023-04-25T09:05:55;100020.00;;;13.13;42.89
46846;BME280;33947;46.804;134.252;2023-04-25T09:09:09;100026.97;;;13.15;42.31
46846;BME280;33947;46.804;134.252;2023-04-25T09:12:18;100028.97;;;13.31;41.26
46846;BME280;33947;46.804;134.252;2023-04-25T09:15:23;100022.72;;;13.11;41.83
46846;BME280;33947;46.804;134.252;2023-04-25T09:18:42;100027.22;;;13.30;41.68
46846;BME280;33947;46.804;134.252;2023-04-25T09:21:56;100010.84;;;13.18;41.96
46846;BME280;33947;46.804;134.252;2023-04-25T09:25:09;100009.75;;;13.23;41.64
46846;BME280;33947;46.804;134.252;2023-04-25T09:28:15;99992.81;;;13.05;41.74
46846;BME280;33947;46.804;134.252;2023-04-25T09:31:23;99981.09;;;13.09;42.17
46846;BME280;33947;46.804;134.252;2023-04-25T09:34:42;99991.22;;;13.20;42.02
46846;BME280;33947;46.804;134.252;2023-04-25T09:37:47;99981.88;;;13.11;41.39
46846;BME280;33947;46.804;134.252;2023-04-25T09:41:23;99966.63;;;12.74;42.31
46846;BME280;33947;46.804;134.252;2023-04-25T09:44:30;99993.38;;;12.92;42.07
46846;BME280;33947;46.804;134.252;2023-04-25T09:47:37;99984.75;;;13.06;41.54
46846;BME280;33947;46.804;134.252;2023-04-25T09:50:44;99960.78;;;12.85;41.96
46846;BME280;33947;46.804;134.252;2023-04-25T09:53:49;99994.81;;;12.99;41.78
46846;BME280;33947;46.804;134.252;2023-04-25T09:57:21;99993.66;;;12.86;42.79
46846;BME280;33947;46.804;134.252;2023-04-25T10:00:28;99987.50;;;12.65;42.75
46846;BME280;33947;46.804;134.252;2023-04-25T10:03:47;99946.94;;;12.58;42.96
46846;BME280;33947;46.804;134.252;2023-04-25T10:07:14;99990.59;;;12.55;43.49
46846;BME280;33947;46.804;134.252;2023-04-25T10:10:20;99978.97;;;12.36;43.55
46846;BME280;33947;46.804;134.252;2023-04-25T10:13:30;99994.28;;;12.72;43.24
46846;BME280;33947;46.804;134.252;2023-04-25T10:16:35;99991.38;;;12.57;43.99
46846;BME280;33947;46.804;134.252;2023-04-25T10:19:40;99967.06;;;12.44;43.70
46846;BME280;33947;46.804;134.252;2023-04-25T10:22:46;99993.66;;;12.86;43.88
46846;BME280;33947;46.804;134.252;2023-04-25T10:25:52;100000.88;;;12.63;43.95
46846;BME280;33947;46.804;134.252;2023-04-25T10:29:02;99979.13;;;12.33;44.40
46846;BME280;33947;46.804;134.252;2023-04-25T10:32:07;99983.59;;;12.32;44.95
46846;BME280;33947;46.804;134.252;2023-04-25T10:35:17;99997.97;;;12.49;44.58
46846;BME280;33947;46.804;134.252;2023-04-25T10:38:22;99935.13;;;12.03;44.65
46846;BME280;33947;46.804;134.252;2023-04-25T10:41:26;100001.31;;;12.11;45.84
46846;BME280;33947;46.804;134.252;2023-04-25T10:44:34;99994.75;;;12.20;45.51
46846;BME280;33947;46.804;134.252;2023-04-25T10:47:43;99995.91;;;12.14;45.23
46846;BME280;33947;46.804;134.252;2023-04-25T10:50:49;99990.56;;;11.92;45.33
46846;BME280;33947;46.804;134.252;2023-04-25T10:56:58;99975.59;;;11.89;45.07
46846;BME280;33947;46.804;134.252;2023-04-25T11:03:17;99984.50;;;11.88;45.28
46846;BME280;33947;46.804;134.252;2023-04-25T11:09:47;99987.97;;;11.68;45.83
46846;BME280;33947;46.804;134.252;2023-04-25T11:12:59;99994.84;;;11.51;46.01
46846;BME280;33947;46.804;134.252;2023-04-25T11:16:09;99992.94;;;11.77;45.87
46846;BME280;33947;46.804;134.252;2023-04-25T11:19:15;100007.09;;;11.78;45.39
46846;BME280;33947;46.804;134.252;2023-04-25T11:22:21;100013.97;;;11.61;46.12
46846;BME280;33947;46.804;134.252;2023-04-25T11:25:26;99965.03;;;11.43;45.39
46846;BME280;33947;46.804;134.252;2023-04-25T11:28:30;99989.09;;;11.62;45.68
46846;BME280;33947;46.804;134.252;2023-04-25T11:31:34;100014.75;;;11.63;46.06
46846;BME280;33947;46.804;134.252;2023-04-25T11:34:43;100009.81;;;11.76;45.69
46846;BME280;33947;46.804;134.252;2023-04-25T11:37:49;100007.41;;;11.70;45.45
46846;BME280;33947;46.804;134.252;2023-04-25T11:40:54;100003.97;;;11.44;46.19
46846;BME280;33947;46.804;134.252;2023-04-25T11:43:59;100009.13;;;11.49;46.42
46846;BME280;33947;46.804;134.252;2023-04-25T11:47:03;100007.91;;;11.57;45.75
46846;BME280;33947;46.804;134.252;2023-04-25T11:50:08;100007.53;;;11.44;46.76
46846;BME280;33947;46.804;134.252;2023-04-25T11:53:13;100006.56;;;11.23;47.83
46846;BME280;33947;46.804;134.252;2023-04-25T11:56:18;100005.19;;;11.35;47.00
46846;BME280;33947;46.804;134.252;2023-04-25T11:59:25;100007.66;;;11.18;47.91
46846;BME280;33947;46.804;134.252;2023-04-25T12:02:30;100005.97;;;11.15;48.25
46846;BME280;33947;46.804;134.252;2023-04-25T12:05:35;100009.16;;;11.25;47.94
46846;BME280;33947;46.804;134.252;2023-04-25T12:09:06;100022.31;;;11.28;48.23
46846;BME280;33947;46.804;134.252;2023-04-25T12:12:12;100022.53;;;11.23;47.84
46846;BME280;33947;46.804;134.252;2023-04-25T12:15:24;100014.94;;;11.12;48.63
46846;BME280;33947;46.804;134.252;2023-04-25T12:18:28;100007.81;;;11.13;48.33
46846;BME280;33947;46.804;134.252;2023-04-25T12:21:34;100025.19;;;11.23;48.15
46846;BME280;33947;46.804;134.252;2023-04-25T12:24:52;99975.31;;;11.06;48.18
46846;BME280;33947;46.804;134.252;2023-04-25T12:28:21;100013.38;;;11.07;49.56
46846;BME280;33947;46.804;134.252;2023-04-25T12:31:31;100010.94;;;11.00;49.30
46846;BME280;33947;46.804;134.252;2023-04-25T12:34:38;100001.38;;;10.96;49.11
46846;BME280;33947;46.804;134.252;2023-04-25T12:37:42;100009.22;;;10.99;49.34
46846;BME280;33947;46.804;134.252;2023-04-25T12:40:47;100013.69;;;10.74;50.32
46846;BME280;33947;46.804;134.252;2023-04-25T12:43:51;100014.72;;;10.69;50.68
46846;BME280;33947;46.804;134.252;2023-04-25T12:46:56;100015.25;;;10.79;50.35
46846;BME280;33947;46.804;134.252;2023-04-25T12:50:01;100015.25;;;10.79;50.42
46846;BME280;33947;46.804;134.252;2023-04-25T12:53:05;100010.41;;;10.67;51.34
46846;BME280;33947;46.804;134.252;2023-04-25T12:56:10;99977.09;;;10.56;50.73
46846;BME280;33947;46.804;134.252;2023-04-25T12:59:15;100016.13;;;10.54;52.22
46846;BME280;33947;46.804;134.252;2023-04-25T13:02:19;100010.34;;;10.43;52.75
46846;BME280;33947;46.804;134.252;2023-04-25T13:05:25;99989.44;;;10.32;52.20
46846;BME280;33947;46.804;134.252;2023-04-25T13:08:30;100011.38;;;10.37;52.85
46846;BME280;33947;46.804;134.252;2023-04-25T13:11:34;100006.44;;;10.53;52.16
46846;BME280;33947;46.804;134.252;2023-04-25T13:14:39;99980.31;;;10.41;52.10
46846;BME280;33947;46.804;134.252;2023-04-25T13:17:43;100013.91;;;10.42;52.98
46846;BME280;33947;46.804;134.252;2023-04-25T13:20:47;100011.22;;;10.44;52.50
46846;BME280;33947;46.804;134.252;2023-04-25T13:23:52;99997.03;;;10.45;52.68
46846;BME280;33947;46.804;134.252;2023-04-25T13:26:57;100002.38;;;10.43;52.71
46846;BME280;33947;46.804;134.252;2023-04-25T13:30:05;99995.41;;;10.39;53.92
46846;BME280;33947;46.804;134.252;2023-04-25T13:33:14;99992.63;;;10.44;53.02
46846;BME280;33947;46.804;134.252;2023-04-25T13:36:18;99992.78;;;10.37;53.19
46846;BME280;33947;46.804;134.252;2023-04-25T13:39:24;99999.84;;;10.38;53.69
46846;BME280;33947;46.804;134.252;2023-04-25T13:42:28;99978.81;;;10.32;53.88
46846;BME280;33947;46.804;134.252;2023-04-25T13:45:33;99984.94;;;10.34;53.63
46846;BME280;33947;46.804;134.252;2023-04-25T13:48:37;99999.84;;;10.38;53.78
46846;BME280;33947;46.804;134.252;2023-04-25T13:51:42;99988.59;;;10.32;54.85
46846;BME280;33947;46.804;134.252;2023-04-25T13:54:46;99999.09;;;10.35;54.72
46846;BME280;33947;46.804;134.252;2023-04-25T13:57:51;99986.63;;;10.11;56.48
46846;BME280;33947;46.804;134.252;2023-04-25T14:00:55;99988.94;;;10.21;55.42
46846;BME280;33947;46.804;134.252;2023-04-25T14:04:00;99985.13;;;10.30;55.47
46846;BME280;33947;46.804;134.252;2023-04-25T14:07:04;99981.66;;;10.01;56.64
46846;BME280;33947;46.804;134.252;2023-04-25T14:10:09;99984.88;;;10.10;56.33
46846;BME280;33947;46.804;134.252;2023-04-25T14:13:13;99982.06;;;10.15;56.51
46846;BME280;33947;46.804;134.252;2023-04-25T14:16:18;99977.84;;;10.09;56.21
46846;BME280;33947;46.804;134.252;2023-04-25T14:19:24;99984.94;;;10.09;56.59
46846;BME280;33947;46.804;134.252;2023-04-25T14:22:28;99971.66;;;10.09;56.16
46846;BME280;33947;46.804;134.252;2023-04-25T14:25:33;99984.94;;;10.09;56.12
46846;BME280;33947;46.804;134.252;2023-04-25T14:28:38;99986.06;;;10.02;56.43
46846;BME280;33947;46.804;134.252;2023-04-25T14:31:43;99964.22;;;9.93;56.44
46846;BME280;33947;46.804;134.252;2023-04-25T14:34:48;99982.16;;;10.12;56.20
46846;BME280;33947;46.804;134.252;2023-04-25T14:37:54;99985.41;;;10.20;56.22
46846;BME280;33947;46.804;134.252;2023-04-25T14:40:58;99978.25;;;9.97;57.58
46846;BME280;33947;46.804;134.252;2023-04-25T14:44:03;99980.84;;;9.98;57.05
46846;BME280;33947;46.804;134.252;2023-04-25T14:47:08;99938.66;;;9.64;57.05
46846;BME280;33947;46.804;134.252;2023-04-25T14:50:14;99978.88;;;9.78;59.11
46846;BME280;33947;46.804;134.252;2023-04-25T14:53:19;99950.72;;;9.74;57.64
46846;BME280;33947;46.804;134.252;2023-04-25T14:56:23;99969.06;;;9.80;57.96
46846;BME280;33947;46.804;134.252;2023-04-25T14:59:28;99966.63;;;9.74;58.26
46846;BME280;33947;46.804;134.252;2023-04-25T15:02:33;99963.91;;;9.76;57.93
46846;BME280;33947;46.804;134.252;2023-04-25T15:05:39;99960.59;;;9.69;58.60
46846;BME280;33947;46.804;134.252;2023-04-25T15:08:45;99983.00;;;9.59;60.55
46846;BME280;33947;46.804;134.252;2023-04-25T15:11:50;99968.84;;;9.31;61.53
46846;BME280;33947;46.804;134.252;2023-04-25T15:14:54;99994.50;;;9.31;63.84
46846;BME280;33947;46.804;134.252;2023-04-25T15:17:59;99976.25;;;8.90;66.40
46846;BME280;33947;46.804;134.252;2023-04-25T15:21:04;99981.91;;;9.07;65.20
46846;BME280;33947;46.804;134.252;2023-04-25T15:24:09;99974.34;;;8.95;66.33
46846;BME280;33947;46.804;134.252;2023-04-25T15:27:13;99952.53;;;8.55;67.81
46846;BME280;33947;46.804;134.252;2023-04-25T15:30:18;99977.94;;;8.62;68.64
46846;BME280;33947;46.804;134.252;2023-04-25T15:33:23;99986.94;;;8.20;75.82
46846;BME280;33947;46.804;134.252;2023-04-25T15:36:27;99979.63;;;8.30;71.21
46846;BME280;33947;46.804;134.252;2023-04-25T15:39:43;99735.38;;;6.99;70.52
46846;BME280;33947;46.804;134.252;2023-04-25T15:42:49;99994.56;;;8.33;72.04
46846;BME280;33947;46.804;134.252;2023-04-25T15:45:57;99970.41;;;7.77;75.66
46846;BME280;33947;46.804;134.252;2023-04-25T15:49:02;99971.50;;;7.68;75.34
46846;BME280;33947;46.804;134.252;2023-04-25T15:52:06;100007.22;;;7.85;74.65
46846;BME280;33947;46.804;134.252;2023-04-25T15:55:11;99988.13;;;7.72;75.15
46846;BME280;33947;46.804;134.252;2023-04-25T15:58:16;99987.06;;;7.81;74.99
46846;BME280;33947;46.804;134.252;2023-04-25T16:01:21;99997.84;;;7.72;76.06
46846;BME280;33947;46.804;134.252;2023-04-25T16:04:27;99996.91;;;7.74;74.82
46846;BME280;33947;46.804;134.252;2023-04-25T16:07:39;100003.31;;;8.00;73.36
46846;BME280;33947;46.804;134.252;2023-04-25T16:10:43;99982.25;;;7.21;78.20
46846;BME280;33947;46.804;134.252;2023-04-25T16:13:48;100009.38;;;7.30;78.03